createdAt,value
2018-04-22T00:02:21.458Z,86.60
2018-04-22T00:04:49.803Z,94.34
2018-04-22T00:07:18.116Z,52.78
2018-04-22T00:09:46.458Z,35.72
2018-04-22T00:12:14.764Z,30.88
2018-04-22T00:14:43.106Z,35.26
2018-04-22T00:17:11.421Z,35.62
2018-04-22T00:19:39.757Z,30.12
2018-04-22T00:22:08.077Z,32.16
2018-04-22T00:24:37.564Z,40.68
2018-04-22T00:27:06.812Z,32.82
2018-04-22T00:29:35.927Z,37.70
2018-04-22T00:32:04.256Z,30.12
2018-04-22T00:34:32.564Z,29.08
2018-04-22T00:37:00.892Z,28.10
2018-04-22T00:39:29.200Z,26.22
2018-04-22T00:41:57.536Z,26.68
2018-04-22T00:44:25.849Z,25.86
2018-04-22T00:46:55.255Z,25.90
2018-04-22T00:49:24.284Z,23.56
2018-04-22T00:51:52.618Z,22.58
2018-04-22T00:54:20.934Z,24.42
2018-04-22T00:56:49.264Z,23.70
2018-04-22T00:59:17.576Z,23.22
2018-04-22T01:01:45.917Z,25.24
2018-04-22T01:04:14.225Z,24.90
2018-04-22T01:06:42.559Z,23.20
2018-04-22T01:09:10.880Z,23.98
2018-04-22T01:11:39.197Z,25.32
2018-04-22T01:14:07.529Z,24.44
2018-04-22T01:16:37.116Z,24.88
2018-04-22T01:19:06.583Z,25.20
2018-04-22T01:21:36.094Z,26.16
2018-04-22T01:24:04.425Z,25.74
2018-04-22T01:26:32.736Z,25.30
2018-04-22T01:29:01.067Z,23.92
2018-04-22T01:31:29.373Z,25.24
2018-04-22T01:33:57.705Z,25.86
2018-04-22T01:36:26.021Z,25.22
2018-04-22T01:38:55.683Z,25.74
2018-04-22T01:41:24.638Z,25.34
2018-04-22T01:43:52.989Z,24.48
2018-04-22T01:46:21.311Z,29.54
2018-04-22T01:48:49.658Z,27.80
2018-04-22T01:51:17.964Z,27.20
2018-04-22T01:53:46.297Z,27.60
2018-04-22T01:56:14.608Z,27.50
2018-04-22T01:58:42.936Z,26.32
2018-04-22T02:01:11.247Z,24.52
2018-04-22T02:03:39.581Z,26.18
2018-04-22T02:06:07.891Z,26.30
2018-04-22T02:08:36.226Z,26.60
2018-04-22T02:11:04.537Z,34.86
2018-04-22T02:13:32.868Z,44.56
2018-04-22T02:16:01.206Z,29.12
2018-04-22T02:18:29.512Z,27.12
2018-04-22T02:20:57.841Z,31.26
2018-04-22T02:23:26.152Z,35.24
2018-04-22T02:25:55.780Z,27.64
2018-04-22T02:28:25.203Z,24.96
2018-04-22T02:30:53.567Z,27.48
2018-04-22T02:33:22.802Z,27.62
2018-04-22T02:35:51.145Z,27.38
2018-04-22T02:38:19.488Z,27.32
2018-04-22T02:40:47.831Z,29.74
2018-04-22T02:43:16.140Z,28.10
2018-04-22T02:45:44.469Z,29.42
2018-04-22T02:48:12.783Z,25.40
2018-04-22T02:50:41.121Z,24.92
2018-04-22T02:53:09.432Z,22.64
2018-04-22T02:55:37.773Z,22.38
2018-04-22T02:58:06.952Z,24.44
2018-04-22T03:00:35.295Z,23.94
2018-04-22T03:03:03.609Z,25.50
2018-04-22T03:05:31.944Z,23.76
2018-04-22T03:08:00.248Z,23.32
2018-04-22T03:10:28.578Z,22.10
2018-04-22T03:12:56.885Z,22.78
2018-04-22T03:15:25.925Z,23.46
2018-04-22T03:17:54.276Z,27.88
2018-04-22T03:20:22.601Z,27.08
2018-04-22T03:22:50.904Z,25.76
2018-04-22T03:25:19.236Z,23.44
2018-04-22T03:27:47.544Z,23.30
2018-04-22T03:30:15.878Z,24.82
2018-04-22T03:32:44.191Z,23.80
2018-04-22T03:35:12.538Z,23.48
2018-04-22T03:37:40.870Z,21.46
2018-04-22T03:40:09.204Z,23.36
2018-04-22T03:42:37.528Z,22.96
2018-04-22T03:45:06.756Z,23.08
2018-04-22T03:47:35.064Z,22.54
2018-04-22T03:50:03.393Z,23.48
2018-04-22T03:52:31.706Z,24.12
2018-04-22T03:55:00.045Z,23.80
2018-04-22T03:57:28.356Z,23.84
2018-04-22T03:59:56.697Z,23.76
2018-04-22T04:02:25.581Z,21.56
2018-04-22T04:04:54.336Z,23.48
2018-04-22T04:07:22.644Z,23.30
2018-04-22T04:09:50.963Z,22.34
2018-04-22T04:12:19.298Z,22.08
2018-04-22T04:14:47.609Z,24.44
2018-04-22T04:17:15.940Z,22.86
2018-04-22T04:19:56.132Z,23.14
2018-04-22T04:22:36.354Z,21.20
2018-04-22T04:25:39.936Z,21.76
2018-04-22T04:28:08.245Z,21.38
2018-04-22T04:30:37.824Z,22.06
2018-04-22T04:33:06.556Z,21.08
2018-04-22T04:35:35.595Z,21.36
2018-04-22T04:38:03.919Z,20.26
2018-04-22T04:40:32.224Z,21.86
2018-04-22T04:43:00.561Z,21.44
2018-04-22T04:45:28.871Z,21.00
2018-04-22T04:47:57.199Z,20.12
2018-04-22T04:50:26.729Z,20.54
2018-04-22T04:52:55.828Z,20.54
2018-04-22T04:55:25.093Z,20.60
2018-04-22T04:57:53.428Z,19.86
2018-04-22T05:00:21.762Z,19.34
2018-04-22T05:02:50.089Z,17.84
2018-04-22T05:05:18.397Z,19.02
2018-04-22T05:07:46.741Z,17.56
2018-04-22T05:10:15.056Z,18.48
2018-04-22T05:12:43.393Z,16.64
2018-04-22T05:15:11.713Z,17.28
2018-04-22T05:17:40.055Z,16.72
2018-04-22T05:20:08.365Z,16.60
2018-04-22T05:22:38.089Z,17.06
2018-04-22T05:25:07.632Z,17.38
2018-04-22T05:27:36.389Z,16.88
2018-04-22T05:30:06.341Z,17.52
2018-04-22T05:32:35.589Z,17.62
2018-04-22T05:35:03.905Z,18.14
2018-04-22T05:37:32.231Z,18.48
2018-04-22T05:40:00.882Z,17.68
2018-04-22T05:42:29.212Z,18.30
2018-04-22T05:44:57.516Z,19.20
2018-04-22T05:47:26.769Z,18.00
2018-04-22T05:49:56.128Z,18.28
2018-04-22T05:52:25.316Z,19.92
2018-04-22T05:54:54.226Z,21.44
2018-04-22T05:57:22.559Z,24.50
2018-04-22T05:59:50.871Z,27.00
2018-04-22T06:02:19.200Z,19.20
2018-04-22T06:04:47.509Z,19.62
2018-04-22T06:07:15.837Z,18.76
2018-04-22T06:09:44.144Z,17.76
2018-04-22T06:12:12.482Z,18.14
2018-04-22T06:14:40.801Z,18.80
2018-04-22T06:17:09.141Z,18.34
2018-04-22T06:19:37.453Z,17.72
2018-04-22T06:22:06.800Z,17.82
2018-04-22T06:24:36.149Z,17.88
2018-04-22T06:27:04.456Z,16.80
2018-04-22T06:29:32.784Z,17.42
2018-04-22T06:32:01.096Z,17.76
2018-04-22T06:34:29.424Z,16.64
2018-04-22T06:36:57.724Z,18.72
2018-04-22T06:39:26.061Z,16.04
2018-04-22T06:41:55.988Z,15.16
2018-04-22T06:44:24.359Z,16.04
2018-04-22T06:46:52.666Z,17.16
2018-04-22T06:49:20.993Z,16.26
2018-04-22T06:51:49.296Z,15.98
2018-04-22T06:54:18.621Z,14.70
2018-04-22T06:56:46.930Z,15.66
2018-04-22T06:59:15.265Z,15.08
2018-04-22T07:01:43.577Z,15.64
2018-04-22T07:04:11.910Z,17.02
2018-04-22T07:06:40.228Z,15.82
2018-04-22T07:09:08.556Z,15.06
2018-04-22T07:11:37.788Z,13.92
2018-04-22T07:14:06.569Z,14.90
2018-04-22T07:16:35.487Z,13.72
2018-04-22T07:19:03.824Z,15.46
2018-04-22T07:21:32.133Z,13.92
2018-04-22T07:24:00.503Z,13.00
2018-04-22T07:26:28.784Z,11.48
2018-04-22T07:28:57.116Z,11.90
2018-04-22T07:31:26.365Z,11.42
2018-04-22T07:33:55.680Z,10.62
2018-04-22T07:36:24.604Z,10.64
2018-04-22T07:38:52.965Z,11.20
2018-04-22T07:41:21.277Z,9.88
2018-04-22T07:43:49.595Z,9.68
2018-04-22T07:46:17.908Z,9.56
2018-04-22T07:48:46.231Z,9.36
2018-04-22T07:51:14.551Z,8.92
2018-04-22T07:53:42.885Z,8.94
2018-04-22T07:56:11.195Z,8.80
2018-04-22T07:58:39.527Z,9.96
2018-04-22T08:01:08.261Z,8.98
2018-04-22T08:03:37.604Z,8.64
2018-04-22T08:06:06.869Z,8.02
2018-04-22T08:08:36.266Z,8.10
2018-04-22T08:11:04.572Z,8.58
2018-04-22T08:13:32.896Z,8.64
2018-04-22T08:16:01.543Z,8.28
2018-04-22T08:18:29.878Z,8.12
2018-04-22T08:20:58.180Z,7.82
2018-04-22T08:23:26.483Z,7.98
2018-04-22T08:25:54.801Z,8.06
2018-04-22T08:28:23.269Z,9.30
2018-04-22T08:30:51.856Z,7.96
2018-04-22T08:33:20.388Z,7.14
2018-04-22T08:35:48.948Z,7.50
2018-04-22T08:38:17.484Z,8.80
2018-04-22T08:40:45.949Z,7.96
2018-04-22T08:43:14.425Z,7.94
2018-04-22T08:45:42.921Z,7.52
2018-04-22T08:48:11.278Z,7.68
2018-04-22T08:50:39.852Z,7.68
2018-04-22T08:53:08.394Z,8.02
2018-04-22T08:55:38.065Z,8.40
2018-04-22T08:58:07.777Z,8.44
2018-04-22T09:00:37.004Z,8.12
2018-04-22T09:03:06.652Z,8.72
2018-04-22T09:05:36.248Z,8.14
2018-04-22T09:08:05.623Z,8.88
2018-04-22T09:10:34.018Z,8.06
2018-04-22T09:13:02.509Z,8.40
2018-04-22T09:15:31.006Z,7.32
2018-04-22T09:17:59.508Z,7.50
2018-04-22T09:20:28.006Z,8.06
2018-04-22T09:22:56.523Z,7.66
2018-04-22T09:25:25.044Z,9.44
2018-04-22T09:27:53.591Z,7.70
2018-04-22T09:30:23.059Z,7.20
2018-04-22T09:32:51.592Z,7.14
2018-04-22T09:35:20.108Z,7.24
2018-04-22T09:37:48.599Z,7.32
2018-04-22T09:40:17.130Z,7.82
2018-04-22T09:42:45.631Z,8.84
2018-04-22T09:45:14.177Z,6.66
2018-04-22T09:47:42.691Z,7.04
2018-04-22T09:50:11.239Z,7.22
2018-04-22T09:52:39.643Z,7.62
2018-04-22T09:55:08.134Z,7.70
2018-04-22T09:57:37.661Z,7.40
2018-04-22T10:00:06.218Z,6.96
2018-04-22T10:02:34.537Z,7.12
2018-04-22T10:05:07.841Z,7.44
2018-04-22T10:07:37.085Z,6.94
2018-04-22T10:10:06.496Z,6.76
2018-04-22T10:12:35.442Z,7.20
2018-04-22T10:15:03.776Z,6.50
2018-04-22T10:17:32.084Z,6.52
2018-04-22T10:20:00.404Z,6.58
2018-04-22T10:22:28.728Z,6.18
2018-04-22T10:24:57.030Z,6.56
2018-04-22T10:27:26.301Z,6.32
2018-04-22T10:29:55.583Z,6.16
2018-04-22T10:32:24.412Z,6.98
2018-04-22T10:34:52.716Z,6.28
2018-04-22T10:37:21.041Z,6.58
2018-04-22T10:39:49.345Z,5.30
2018-04-22T10:42:17.677Z,5.64
2018-04-22T10:44:45.987Z,5.90
2018-04-22T10:47:14.308Z,6.46
2018-04-22T10:49:42.605Z,6.62
2018-04-22T10:52:10.936Z,5.46
2018-04-22T10:54:39.237Z,6.00
2018-04-22T10:57:07.559Z,6.08
2018-04-22T10:59:36.945Z,5.80
2018-04-22T11:02:06.428Z,5.90
2018-04-22T11:04:36.366Z,5.42
2018-04-22T11:07:05.903Z,6.38
2018-04-22T11:09:34.209Z,6.24
2018-04-22T11:12:02.537Z,6.70
2018-04-22T11:14:30.827Z,5.98
2018-04-22T11:16:59.129Z,5.84
2018-04-22T11:19:27.418Z,6.16
2018-04-22T11:21:55.858Z,6.00
2018-04-22T11:24:24.369Z,6.08
2018-04-22T11:26:52.123Z,6.80
2018-04-22T11:29:20.567Z,6.50
2018-04-22T11:31:48.922Z,5.84
2018-04-22T11:34:16.706Z,5.94
2018-04-22T11:36:45.129Z,6.10
2018-04-22T11:39:13.527Z,6.28
2018-04-22T11:41:41.994Z,6.36
2018-04-22T11:44:10.430Z,6.48
2018-04-22T11:46:38.902Z,7.26
2018-04-22T11:49:07.399Z,6.46
2018-04-22T11:51:35.859Z,6.40
2018-04-22T11:54:04.376Z,6.52
2018-04-22T11:56:32.819Z,6.74
2018-04-22T11:59:01.139Z,6.44
2018-04-22T12:01:29.617Z,5.36
2018-04-22T12:03:58.002Z,6.62
2018-04-22T12:06:26.528Z,6.34
2018-04-22T12:08:54.231Z,5.86
2018-04-22T12:11:22.659Z,5.70
2018-04-22T12:13:51.113Z,6.36
2018-04-22T12:16:19.586Z,6.68
2018-04-22T12:18:47.971Z,5.66
2018-04-22T12:21:16.382Z,6.16
2018-04-22T12:23:44.854Z,5.34
2018-04-22T12:26:13.244Z,6.02
2018-04-22T12:28:41.694Z,5.38
2018-04-22T12:31:10.052Z,5.70
2018-04-22T12:33:38.511Z,6.18
2018-04-22T12:36:06.943Z,6.54
2018-04-22T12:38:35.397Z,6.22
2018-04-22T12:41:03.818Z,6.82
2018-04-22T12:43:32.226Z,7.12
2018-04-22T12:46:00.685Z,7.14
2018-04-22T12:48:29.139Z,7.06
2018-04-22T12:50:57.547Z,7.06
2018-04-22T12:53:26.983Z,7.08
2018-04-22T12:55:56.123Z,7.48
2018-04-22T12:58:24.608Z,6.36
2018-04-22T13:00:53.158Z,7.06
2018-04-22T13:03:21.599Z,6.60
2018-04-22T13:05:50.044Z,7.36
2018-04-22T13:08:18.620Z,7.26
2018-04-22T13:10:47.022Z,6.94
2018-04-22T13:13:15.490Z,7.14
2018-04-22T13:15:43.871Z,7.98
2018-04-22T13:18:12.351Z,6.90
2018-04-22T13:20:40.830Z,7.20
2018-04-22T13:23:09.306Z,7.68
2018-04-22T13:25:37.599Z,7.68
2018-04-22T13:28:05.904Z,8.08
2018-04-22T13:30:34.199Z,7.72
2018-04-22T13:33:02.506Z,7.40
2018-04-22T13:35:30.790Z,7.58
2018-04-22T13:37:59.099Z,6.90
2018-04-22T13:40:27.395Z,7.76
2018-04-22T13:42:55.703Z,8.40
2018-04-22T13:45:23.991Z,8.84
2018-04-22T13:47:52.307Z,8.06
2018-04-22T13:50:20.603Z,7.50
2018-04-22T13:52:48.935Z,8.38
2018-04-22T13:55:17.224Z,7.72
2018-04-22T13:57:45.522Z,8.40
2018-04-22T14:00:13.853Z,14.74
2018-04-22T14:02:42.156Z,8.96
2018-04-22T14:05:10.478Z,6.60
2018-04-22T14:07:38.778Z,6.90
2018-04-22T14:10:07.087Z,6.50
2018-04-22T14:12:35.375Z,7.02
2018-04-22T14:15:03.691Z,7.30
2018-04-22T14:17:31.991Z,6.92
2018-04-22T14:20:00.302Z,7.54
2018-04-22T14:22:28.604Z,6.80
2018-04-22T14:24:56.155Z,6.34
2018-04-22T14:27:24.443Z,6.62
2018-04-22T14:29:52.760Z,5.84
2018-04-22T14:32:21.051Z,8.86
2018-04-22T14:34:49.357Z,8.80
2018-04-22T14:37:17.658Z,22.18
2018-04-22T14:39:45.984Z,36.28
2018-04-22T14:42:14.285Z,19.76
2018-04-22T14:44:53.685Z,22.84
2018-04-22T14:47:21.981Z,19.80
2018-04-22T14:49:50.290Z,24.36
2018-04-22T14:52:18.582Z,25.04
2018-04-22T14:54:46.891Z,8.70
2018-04-22T14:57:15.183Z,6.14
2018-04-22T14:59:43.507Z,7.54
2018-04-22T15:02:11.799Z,6.24
2018-04-22T15:04:40.118Z,6.64
2018-04-22T15:07:08.411Z,5.78
2018-04-22T15:09:36.717Z,6.14
2018-04-22T15:12:05.015Z,5.76
2018-04-22T15:14:33.331Z,6.22
2018-04-22T15:17:01.614Z,5.96
2018-04-22T15:19:29.984Z,5.72
2018-04-22T15:21:58.234Z,6.02
2018-04-22T15:24:26.551Z,6.20
2018-04-22T15:26:54.845Z,5.46
2018-04-22T15:29:23.154Z,6.40
2018-04-22T15:31:51.444Z,5.74
2018-04-22T15:34:19.763Z,6.24
2018-04-22T15:36:48.058Z,6.42
2018-04-22T15:39:16.362Z,6.04
2018-04-22T15:41:44.645Z,5.96
2018-04-22T15:44:12.979Z,5.44
2018-04-22T15:46:41.266Z,5.78
2018-04-22T15:49:09.558Z,5.66
2018-04-22T15:51:37.888Z,6.16
2018-04-22T15:54:05.411Z,6.06
2018-04-22T15:56:33.722Z,6.68
2018-04-22T15:59:02.013Z,5.90
2018-04-22T16:01:30.332Z,5.84
2018-04-22T16:03:58.610Z,5.82
2018-04-22T16:06:26.160Z,6.06
2018-04-22T16:08:53.767Z,4.94
2018-04-22T16:11:22.074Z,6.06
2018-04-22T16:13:50.370Z,5.74
2018-04-22T16:16:18.682Z,7.14
2018-04-22T16:18:46.980Z,5.76
2018-04-22T16:21:15.310Z,5.80
2018-04-22T16:23:43.601Z,6.04
2018-04-22T16:26:11.906Z,5.86
2018-04-22T16:28:40.190Z,6.26
2018-04-22T16:31:08.502Z,6.32
2018-04-22T16:33:36.791Z,6.34
2018-04-22T16:36:05.095Z,6.32
2018-04-22T16:38:33.391Z,6.64
2018-04-22T16:41:01.704Z,6.60
2018-04-22T16:43:29.994Z,5.60
2018-04-22T16:45:58.303Z,6.16
2018-04-22T16:48:26.595Z,6.72
2018-04-22T16:50:54.906Z,6.62
2018-04-22T16:53:23.195Z,7.02
2018-04-22T16:55:51.535Z,7.22
2018-04-22T16:58:19.814Z,6.34
2018-04-22T17:00:48.119Z,6.68
2018-04-22T17:03:16.411Z,6.14
2018-04-22T17:05:44.727Z,6.78
2018-04-22T17:08:13.015Z,6.66
2018-04-22T17:10:41.329Z,6.90
2018-04-22T17:13:09.617Z,6.54
2018-04-22T17:15:37.925Z,6.32
2018-04-22T17:18:06.211Z,6.44
2018-04-22T17:20:34.518Z,6.92
2018-04-22T17:23:02.811Z,6.10
2018-04-22T17:25:31.131Z,6.86
2018-04-22T17:27:59.422Z,6.02
2018-04-22T17:30:27.734Z,7.22
2018-04-22T17:32:56.023Z,6.84
2018-04-22T17:35:24.330Z,7.00
2018-04-22T17:37:52.645Z,6.30
2018-04-22T17:40:20.943Z,6.98
2018-04-22T17:42:49.258Z,7.62
2018-04-22T17:45:17.547Z,7.04
2018-04-22T17:47:45.855Z,7.08
2018-04-22T17:50:14.142Z,6.92
2018-04-22T17:52:42.454Z,7.02
2018-04-22T17:55:10.755Z,7.84
2018-04-22T17:57:39.066Z,6.94
2018-04-22T18:00:07.358Z,7.30
2018-04-22T18:02:35.678Z,8.06
2018-04-22T18:05:03.199Z,7.28
2018-04-22T18:07:31.510Z,7.94
2018-04-22T18:09:59.798Z,7.68
2018-04-22T18:12:28.115Z,8.44
2018-04-22T18:14:56.399Z,7.46
2018-04-22T18:17:24.843Z,7.50
2018-04-22T18:19:53.142Z,8.12
2018-04-22T18:22:21.464Z,7.52
2018-04-22T18:24:49.845Z,7.90
2018-04-22T18:27:17.414Z,7.40
2018-04-22T18:29:45.706Z,8.12
2018-04-22T18:32:14.018Z,7.94
2018-04-22T18:34:42.311Z,7.74
2018-04-22T18:37:10.642Z,7.44
2018-04-22T18:39:38.939Z,8.80
2018-04-22T18:42:07.291Z,8.20
2018-04-22T18:44:35.626Z,8.50
2018-04-22T18:47:03.950Z,7.98
2018-04-22T18:49:32.241Z,9.16
2018-04-22T18:51:59.786Z,9.36
2018-04-22T18:54:28.103Z,8.48
2018-04-22T18:56:55.643Z,8.52
2018-04-22T18:59:23.965Z,8.72
2018-04-22T19:01:51.527Z,8.64
2018-04-22T19:04:19.826Z,9.96
2018-04-22T19:06:48.144Z,10.98
2018-04-22T19:09:16.444Z,9.64
2018-04-22T19:11:44.783Z,8.30
2018-04-22T19:14:13.075Z,8.66
2018-04-22T19:16:41.368Z,7.90
2018-04-22T19:19:09.691Z,9.58
2018-04-22T19:21:37.984Z,8.24
2018-04-22T19:24:06.303Z,8.92
2018-04-22T19:26:34.641Z,8.08
2018-04-22T19:29:02.960Z,7.94
2018-04-22T19:31:31.259Z,8.34
2018-04-22T19:33:59.581Z,7.92
2018-04-22T19:36:27.864Z,7.74
2018-04-22T19:38:56.194Z,8.92
2018-04-22T19:41:24.482Z,8.08
2018-04-22T19:43:52.796Z,8.48
2018-04-22T19:46:21.093Z,8.74
2018-04-22T19:48:49.411Z,7.74
2018-04-22T19:51:17.756Z,8.68
2018-04-22T19:53:46.079Z,7.72
2018-04-22T19:56:14.403Z,8.02
2018-04-22T19:58:41.954Z,8.88
2018-04-22T20:01:10.247Z,9.28
2018-04-22T20:03:38.562Z,8.90
2018-04-22T20:06:06.851Z,8.42
2018-04-22T20:08:35.178Z,7.90
2018-04-22T20:11:03.468Z,8.60
2018-04-22T20:13:31.798Z,8.28
2018-04-22T20:16:00.099Z,8.34
2018-04-22T20:18:28.402Z,7.42
2018-04-22T20:20:56.693Z,8.28
2018-04-22T20:23:25.011Z,7.66
2018-04-22T20:25:53.298Z,8.46
2018-04-22T20:28:21.635Z,8.20
2018-04-22T20:30:49.927Z,7.88
2018-04-22T20:33:18.235Z,8.64
2018-04-22T20:35:46.601Z,7.84
2018-04-22T20:38:14.909Z,8.68
2018-04-22T20:40:43.203Z,8.40
2018-04-22T20:43:11.510Z,9.32
2018-04-22T20:45:39.802Z,8.80
2018-04-22T20:48:08.119Z,8.74
2018-04-22T20:50:36.419Z,9.12
2018-04-22T20:53:04.742Z,9.48
2018-04-22T20:55:33.048Z,10.04
2018-04-22T20:58:00.571Z,9.48
2018-04-22T21:00:28.883Z,10.06
2018-04-22T21:02:57.178Z,9.60
2018-04-22T21:05:25.497Z,9.24
2018-04-22T21:07:53.787Z,9.38
2018-04-22T21:10:22.230Z,9.10
2018-04-22T21:12:50.527Z,10.50
2018-04-22T21:15:18.839Z,11.24
2018-04-22T21:17:47.142Z,10.90
2018-04-22T21:20:15.460Z,12.04
2018-04-22T21:22:43.750Z,12.20
2018-04-22T21:25:12.062Z,10.70
2018-04-22T21:27:40.359Z,11.04
2018-04-22T21:30:08.679Z,10.58
2018-04-22T21:32:36.970Z,9.60
2018-04-22T21:35:05.280Z,9.16
2018-04-22T21:37:33.574Z,9.70
2018-04-22T21:40:01.887Z,9.54
2018-04-22T21:42:30.188Z,10.12
2018-04-22T21:44:58.498Z,9.44
2018-04-22T21:47:26.790Z,9.40
2018-04-22T21:49:55.102Z,9.78
2018-04-22T21:52:22.627Z,9.50
2018-04-22T21:54:50.940Z,9.18
2018-04-22T21:57:19.235Z,9.14
2018-04-22T21:59:47.554Z,9.08
2018-04-22T22:02:15.842Z,8.66
2018-04-22T22:04:44.155Z,10.16
2018-04-22T22:07:12.447Z,9.50
2018-04-22T22:09:40.758Z,9.36
2018-04-22T22:12:09.051Z,10.86
2018-04-22T22:14:37.367Z,10.38
2018-04-22T22:17:05.658Z,10.66
2018-04-22T22:19:33.975Z,9.76
2018-04-22T22:22:02.270Z,9.80
2018-04-22T22:24:30.590Z,8.78
2018-04-22T22:26:58.878Z,9.50
2018-04-22T22:29:27.195Z,10.76
2018-04-22T22:31:55.527Z,9.02
2018-04-22T22:34:23.843Z,10.80
2018-04-22T22:36:52.157Z,9.66
2018-04-22T22:39:20.666Z,9.98
2018-04-22T22:41:48.954Z,9.32
2018-04-22T22:44:17.243Z,9.90
2018-04-22T22:46:45.559Z,9.92
2018-04-22T22:49:13.850Z,9.74
2018-04-22T22:51:42.159Z,9.98
2018-04-22T22:54:10.452Z,9.70
2018-04-22T22:56:38.763Z,9.80
2018-04-22T22:59:07.058Z,10.16
2018-04-22T23:01:35.370Z,10.14
2018-04-22T23:04:03.669Z,10.06
2018-04-22T23:06:32.000Z,9.52
2018-04-22T23:09:00.298Z,10.98
2018-04-22T23:11:28.613Z,9.36
2018-04-22T23:13:56.143Z,7.34
2018-04-22T23:16:24.462Z,7.58
2018-04-22T23:18:52.753Z,6.80
2018-04-22T23:21:21.068Z,8.02
2018-04-22T23:23:49.363Z,6.10
2018-04-22T23:26:17.667Z,6.44
2018-04-22T23:28:45.959Z,6.06
2018-04-22T23:31:14.272Z,5.72
2018-04-22T23:33:42.558Z,5.58
2018-04-22T23:36:10.867Z,5.64
2018-04-22T23:38:39.158Z,5.50
2018-04-22T23:41:07.469Z,5.94
2018-04-22T23:43:35.764Z,5.62
2018-04-22T23:46:04.132Z,5.62
2018-04-22T23:48:32.399Z,5.64
2018-04-22T23:51:00.706Z,6.12
2018-04-22T23:53:28.991Z,5.78
2018-04-22T23:55:57.299Z,6.10
2018-04-22T23:58:25.603Z,5.52
